createdAt,value
2022-11-07T00:00:40.425Z,89.79
2022-11-07T00:01:40.462Z,89.38
2022-11-07T00:02:40.468Z,89.17
2022-11-07T00:03:40.389Z,88.96
2022-11-07T00:04:40.387Z,88.76
2022-11-07T00:05:40.356Z,88.35
2022-11-07T00:06:40.345Z,88.35
2022-11-07T00:07:40.341Z,88.24
2022-11-07T00:08:40.317Z,88.35
2022-11-07T00:09:40.352Z,88.35
2022-11-07T00:10:40.289Z,88.31
2022-11-07T00:11:40.278Z,88.24
2022-11-07T00:12:40.258Z,88.04
2022-11-07T00:13:40.256Z,87.84
2022-11-07T00:14:40.256Z,87.84
2022-11-07T00:15:40.254Z,87.84
2022-11-07T00:16:40.232Z,87.79
2022-11-07T00:17:40.197Z,87.84
2022-11-07T00:18:40.187Z,87.84
2022-11-07T00:19:40.196Z,87.52
2022-11-07T00:20:40.156Z,87.63
2022-11-07T00:21:40.176Z,87.73
2022-11-07T00:22:40.133Z,87.94
2022-11-07T00:23:40.135Z,88.14
2022-11-07T00:24:40.133Z,88.20
2022-11-07T00:25:40.095Z,88.31
2022-11-07T00:26:40.078Z,88.00
2022-11-07T00:27:40.158Z,88.10
2022-11-07T00:28:40.071Z,88.04
2022-11-07T00:29:40.083Z,87.73
2022-11-07T00:30:40.052Z,87.63
2022-11-07T00:31:40.003Z,87.42
2022-11-07T00:32:40.000Z,87.22
2022-11-07T00:33:39.994Z,87.22
2022-11-07T00:34:40.012Z,87.12
2022-11-07T00:35:39.962Z,87.32
2022-11-07T00:36:39.943Z,87.32
2022-11-07T00:37:39.933Z,87.52
2022-11-07T00:38:39.923Z,87.63
2022-11-07T00:39:39.904Z,87.73
2022-11-07T00:40:39.899Z,87.73
2022-11-07T00:41:39.870Z,87.63
2022-11-07T00:42:39.864Z,87.52
2022-11-07T00:43:39.852Z,87.42
2022-11-07T00:44:39.841Z,87.52
2022-11-07T00:45:39.835Z,87.22
2022-11-07T00:46:39.831Z,87.22
2022-11-07T00:47:39.793Z,87.73
2022-11-07T00:48:39.791Z,87.42
2022-11-07T00:49:39.802Z,87.52
2022-11-07T00:50:39.761Z,87.73
2022-11-07T00:51:39.751Z,87.84
2022-11-07T00:52:39.743Z,87.84
2022-11-07T00:53:39.721Z,87.84
2022-11-07T00:54:39.710Z,87.52
2022-11-07T00:55:39.678Z,87.22
2022-11-07T00:56:39.685Z,87.05
2022-11-07T00:57:39.679Z,87.15
2022-11-07T00:58:39.672Z,87.67
2022-11-07T00:59:39.639Z,87.57
2022-11-07T01:00:39.628Z,87.57
2022-11-07T01:01:39.730Z,87.26
2022-11-07T01:02:39.689Z,87.05
2022-11-07T01:03:39.597Z,87.26
2022-11-07T01:04:39.587Z,87.26
2022-11-07T01:05:39.597Z,86.54
2022-11-07T01:06:39.553Z,86.95
2022-11-07T01:07:39.528Z,86.85
2022-11-07T01:08:39.532Z,86.85
2022-11-07T01:09:39.509Z,86.95
2022-11-07T01:10:39.495Z,86.85
2022-11-07T01:11:39.512Z,86.74
2022-11-07T01:12:39.488Z,86.74
2022-11-07T01:13:39.463Z,86.33
2022-11-07T01:14:39.442Z,86.54
2022-11-07T01:15:39.440Z,86.85
2022-11-07T01:16:39.416Z,86.74
2022-11-07T01:17:39.397Z,86.74
2022-11-07T01:18:39.424Z,86.33
2022-11-07T01:19:39.377Z,86.37
2022-11-07T01:20:39.367Z,86.27
2022-11-07T01:21:39.347Z,86.47
2022-11-07T01:22:39.325Z,86.27
2022-11-07T01:23:39.336Z,86.27
2022-11-07T01:24:39.314Z,86.27
2022-11-07T01:25:39.344Z,86.16
2022-11-07T01:26:39.311Z,86.16
2022-11-07T01:27:39.269Z,86.16
2022-11-07T01:28:39.264Z,86.27
2022-11-07T01:29:39.244Z,86.37
2022-11-07T01:30:39.232Z,86.37
2022-11-07T01:31:39.234Z,86.27
2022-11-07T01:32:39.253Z,86.16
2022-11-07T01:33:39.214Z,85.96
2022-11-07T01:34:39.174Z,85.86
2022-11-07T01:35:39.185Z,85.65
2022-11-07T01:36:39.144Z,85.65
2022-11-07T01:37:39.134Z,85.55
2022-11-07T01:38:39.134Z,85.65
2022-11-07T01:39:39.114Z,85.75
2022-11-07T01:40:39.106Z,85.75
2022-11-07T01:41:39.082Z,85.65
2022-11-07T01:42:39.064Z,85.75
2022-11-07T01:43:39.084Z,85.86
2022-11-07T01:44:39.043Z,85.65
2022-11-07T01:45:39.022Z,85.65
2022-11-07T01:46:39.014Z,85.55
2022-11-07T01:47:39.009Z,85.55
2022-11-07T01:48:39.004Z,85.55
2022-11-07T01:49:38.968Z,85.65
2022-11-07T01:50:38.964Z,85.59
2022-11-07T01:51:38.949Z,85.59
2022-11-07T01:52:38.941Z,85.59
2022-11-07T01:53:38.948Z,85.69
2022-11-07T01:54:38.909Z,85.69
2022-11-07T01:55:38.890Z,85.49
2022-11-07T01:56:38.879Z,85.59
2022-11-07T01:57:38.868Z,85.89
2022-11-07T01:58:38.860Z,85.28
2022-11-07T01:59:38.839Z,85.49
2022-11-07T02:00:38.829Z,85.59
2022-11-07T02:01:38.905Z,85.69
2022-11-07T02:02:39.085Z,85.89
2022-11-07T02:03:38.807Z,85.59
2022-11-07T02:04:38.796Z,85.79
2022-11-07T02:05:38.766Z,85.49
2022-11-07T02:06:38.761Z,85.28
2022-11-07T02:07:38.730Z,85.49
2022-11-07T02:08:38.746Z,85.49
2022-11-07T02:09:38.764Z,85.52
2022-11-07T02:10:38.697Z,85.73
2022-11-07T02:11:38.688Z,85.63
2022-11-07T02:12:38.671Z,85.42
2022-11-07T02:13:38.687Z,85.31
2022-11-07T02:14:38.668Z,85.94
2022-11-07T02:15:38.629Z,85.83
2022-11-07T02:16:38.626Z,85.83
2022-11-07T02:17:38.627Z,86.15
2022-11-07T02:18:38.596Z,86.24
2022-11-07T02:19:38.587Z,86.04
2022-11-07T02:20:38.572Z,85.94
2022-11-07T02:21:38.554Z,85.52
2022-11-07T02:22:38.556Z,85.42
2022-11-07T02:23:38.518Z,85.25
2022-11-07T02:24:38.535Z,85.15
2022-11-07T02:25:38.497Z,85.57
2022-11-07T02:26:38.495Z,85.97
2022-11-07T02:27:38.527Z,85.97
2022-11-07T02:28:38.454Z,85.57
2022-11-07T02:29:38.454Z,85.57
2022-11-07T02:30:38.446Z,85.87
2022-11-07T02:31:38.417Z,86.08
2022-11-07T02:32:38.423Z,86.08
2022-11-07T02:33:38.385Z,85.77
2022-11-07T02:34:38.384Z,85.81
2022-11-07T02:35:38.384Z,86.12
2022-11-07T02:36:38.394Z,86.12
2022-11-07T02:37:38.344Z,86.12
2022-11-07T02:38:38.323Z,85.91
2022-11-07T02:39:38.305Z,86.02
2022-11-07T02:40:38.307Z,86.22
2022-11-07T02:41:38.306Z,86.22
2022-11-07T02:42:38.285Z,86.43
2022-11-07T02:43:38.262Z,86.63
2022-11-07T02:44:38.251Z,87.35
2022-11-07T02:45:38.229Z,87.77
2022-11-07T02:46:38.230Z,87.46
2022-11-07T02:47:38.212Z,87.26
2022-11-07T02:48:38.192Z,87.35
2022-11-07T02:49:38.205Z,87.56
2022-11-07T02:50:38.185Z,87.66
2022-11-07T02:51:38.160Z,87.98
2022-11-07T02:52:38.160Z,88.18
2022-11-07T02:53:38.120Z,88.59
2022-11-07T02:54:38.110Z,88.56
2022-11-07T02:55:38.102Z,88.35
2022-11-07T02:56:38.091Z,88.14
2022-11-07T02:57:38.088Z,88.24
2022-11-07T02:58:38.061Z,88.35
2022-11-07T02:59:38.040Z,88.14
2022-11-07T03:00:38.048Z,87.83
2022-11-07T03:01:38.170Z,87.73
2022-11-07T03:02:38.222Z,87.69
2022-11-07T03:03:37.991Z,87.90
2022-11-07T03:04:37.990Z,88.10
2022-11-07T03:05:37.970Z,87.99
2022-11-07T03:06:37.969Z,87.69
2022-11-07T03:07:37.989Z,87.69
2022-11-07T03:08:37.969Z,87.54
2022-11-07T03:09:37.910Z,87.65
2022-11-07T03:10:37.903Z,87.44
2022-11-07T03:11:37.908Z,87.34
2022-11-07T03:12:37.908Z,87.13
2022-11-07T03:13:37.869Z,87.34
2022-11-07T03:14:37.883Z,87.44
2022-11-07T03:15:37.837Z,87.44
2022-11-07T03:16:37.827Z,87.30
2022-11-07T03:17:37.816Z,86.99
2022-11-07T03:18:37.796Z,86.99
2022-11-07T03:19:37.777Z,87.09
2022-11-07T03:20:37.770Z,87.19
2022-11-07T03:21:37.760Z,86.99
2022-11-07T03:22:37.755Z,86.68
2022-11-07T03:23:37.727Z,86.58
2022-11-07T03:24:37.725Z,86.79
2022-11-07T03:25:37.719Z,86.54
2022-11-07T03:26:37.721Z,86.33
2022-11-07T03:27:37.700Z,86.33
2022-11-07T03:28:37.775Z,86.33
2022-11-07T03:29:37.666Z,86.23
2022-11-07T03:30:37.644Z,86.43
2022-11-07T03:31:37.627Z,86.13
2022-11-07T03:32:37.627Z,86.23
2022-11-07T03:33:37.597Z,85.92
2022-11-07T03:34:37.584Z,86.02
2022-11-07T03:35:37.563Z,86.13
2022-11-07T03:36:37.565Z,86.23
2022-11-07T03:37:37.563Z,86.23
2022-11-07T03:38:37.535Z,86.33
2022-11-07T03:39:37.524Z,86.13
2022-11-07T03:40:37.505Z,86.23
2022-11-07T03:41:37.492Z,86.23
2022-11-07T03:42:37.483Z,86.13
2022-11-07T03:43:37.463Z,86.13
2022-11-07T03:44:37.460Z,86.19
2022-11-07T03:45:37.448Z,86.08
2022-11-07T03:46:37.438Z,85.78
2022-11-07T03:47:37.421Z,85.68
2022-11-07T03:48:37.412Z,85.78
2022-11-07T03:49:37.391Z,85.57
2022-11-07T03:50:37.375Z,85.68
2022-11-07T03:51:37.362Z,85.68
2022-11-07T03:52:37.362Z,85.68
2022-11-07T03:53:37.348Z,85.57
2022-11-07T03:54:37.332Z,85.57
2022-11-07T03:55:37.318Z,85.68
2022-11-07T03:56:37.300Z,85.57
2022-11-07T03:57:37.305Z,85.47
2022-11-07T03:58:37.266Z,85.36
2022-11-07T03:59:37.251Z,85.06
2022-11-07T04:00:37.240Z,85.16
2022-11-07T04:01:37.365Z,85.16
2022-11-07T04:02:37.422Z,85.26
2022-11-07T04:03:37.208Z,85.12
2022-11-07T04:04:37.189Z,85.02
2022-11-07T04:05:37.179Z,85.02
2022-11-07T04:06:37.178Z,85.12
2022-11-07T04:07:37.159Z,84.91
2022-11-07T04:08:37.149Z,85.02
2022-11-07T04:09:37.130Z,85.22
2022-11-07T04:10:37.140Z,85.12
2022-11-07T04:11:37.102Z,85.02
2022-11-07T04:12:37.179Z,85.02
2022-11-07T04:13:37.068Z,85.02
2022-11-07T04:14:37.077Z,85.02
2022-11-07T04:15:37.047Z,85.02
2022-11-07T04:16:37.063Z,84.81
2022-11-07T04:17:37.022Z,84.71
2022-11-07T04:18:37.051Z,84.81
2022-11-07T04:19:36.999Z,84.75
2022-11-07T04:20:36.987Z,84.64
2022-11-07T04:21:36.986Z,84.75
2022-11-07T04:22:36.948Z,84.85
2022-11-07T04:23:36.939Z,84.75
2022-11-07T04:24:40.195Z,84.85
2022-11-07T04:25:37.928Z,84.75
2022-11-07T04:26:36.954Z,84.85
2022-11-07T04:27:36.877Z,84.64
2022-11-07T04:28:36.868Z,84.64
2022-11-07T04:29:36.849Z,85.10
2022-11-07T04:30:36.881Z,85.10
2022-11-07T04:31:36.837Z,85.10
2022-11-07T04:32:36.840Z,85.10
2022-11-07T04:33:36.814Z,85.10
2022-11-07T04:34:36.803Z,84.99
2022-11-07T04:35:36.776Z,84.99
2022-11-07T04:36:36.778Z,85.10
2022-11-07T04:37:36.746Z,84.89
2022-11-07T04:38:36.734Z,85.03
2022-11-07T04:39:36.725Z,85.14
2022-11-07T04:40:36.734Z,85.44
2022-11-07T04:41:36.707Z,85.75
2022-11-07T04:42:36.684Z,85.65
2022-11-07T04:43:36.663Z,86.06
2022-11-07T04:44:36.662Z,85.96
2022-11-07T04:45:36.643Z,86.06
2022-11-07T04:46:36.670Z,86.16
2022-11-07T04:47:40.370Z,86.16
2022-11-07T04:48:36.614Z,86.37
2022-11-07T04:49:36.591Z,86.58
2022-11-07T04:50:36.573Z,86.72
2022-11-07T04:51:36.582Z,86.52
2022-11-07T04:52:36.552Z,86.82
2022-11-07T04:53:36.543Z,87.13
2022-11-07T04:54:36.523Z,87.24
2022-11-07T04:55:36.512Z,87.34
2022-11-07T04:56:36.513Z,87.34
2022-11-07T04:57:36.490Z,87.34
2022-11-07T04:58:36.481Z,87.24
2022-11-07T04:59:36.470Z,87.03
2022-11-07T05:00:36.505Z,87.07
2022-11-07T05:01:36.501Z,86.97
2022-11-07T05:02:36.492Z,86.97
2022-11-07T05:03:41.616Z,86.97
2022-11-07T05:04:37.397Z,86.97
2022-11-07T05:05:36.391Z,87.07
2022-11-07T05:06:36.409Z,87.17
2022-11-07T05:07:36.366Z,87.17
2022-11-07T05:08:36.341Z,87.27
2022-11-07T05:09:36.323Z,87.27
2022-11-07T05:10:36.311Z,87.42
2022-11-07T05:11:36.318Z,87.52
2022-11-07T05:12:36.328Z,88.04
2022-11-07T05:13:36.269Z,88.24
2022-11-07T05:14:36.259Z,88.35
2022-11-07T05:15:36.259Z,88.56
2022-11-07T05:16:36.257Z,88.56
2022-11-07T05:17:36.229Z,88.86
2022-11-07T05:18:36.217Z,88.86
2022-11-07T05:19:36.195Z,88.96
2022-11-07T05:20:36.224Z,89.07
2022-11-07T05:21:36.186Z,89.07
2022-11-07T05:22:36.148Z,88.96
2022-11-07T05:23:36.168Z,89.28
2022-11-07T05:24:36.131Z,89.38
2022-11-07T05:25:36.118Z,89.75
2022-11-07T05:26:36.121Z,89.85
2022-11-07T05:27:36.087Z,89.95
2022-11-07T05:28:39.624Z,90.26
2022-11-07T05:29:36.066Z,90.26
2022-11-07T05:30:36.047Z,90.26
2022-11-07T05:31:36.205Z,90.37
2022-11-07T05:32:36.018Z,90.57
2022-11-07T05:33:36.018Z,90.53
2022-11-07T05:34:36.104Z,90.22
2022-11-07T05:35:35.998Z,90.33
2022-11-07T05:36:35.983Z,90.53
2022-11-07T05:37:35.963Z,90.43
2022-11-07T05:38:35.938Z,90.01
2022-11-07T05:39:35.938Z,89.71
2022-11-07T05:40:35.934Z,90.01
2022-11-07T05:41:35.924Z,90.22
2022-11-07T05:42:35.915Z,90.43
2022-11-07T05:43:35.884Z,90.64
2022-11-07T05:44:35.854Z,90.84
2022-11-07T05:45:35.893Z,90.73
2022-11-07T05:46:35.844Z,90.53
2022-11-07T05:47:35.833Z,90.33
2022-11-07T05:48:35.812Z,90.43
2022-11-07T05:49:35.803Z,90.22
2022-11-07T05:50:35.781Z,90.43
2022-11-07T05:51:35.789Z,90.33
2022-11-07T05:52:35.787Z,90.43
2022-11-07T05:53:35.770Z,90.43
2022-11-07T05:54:35.733Z,90.43
2022-11-07T05:55:35.732Z,90.33
2022-11-07T05:56:35.714Z,90.64
2022-11-07T05:57:35.850Z,90.73
2022-11-07T05:58:35.700Z,91.15
2022-11-07T05:59:35.672Z,90.84
2022-11-07T06:00:35.654Z,90.73
2022-11-07T06:01:35.853Z,90.64
2022-11-07T06:02:35.730Z,90.84
2022-11-07T06:03:35.642Z,90.73
2022-11-07T06:04:35.621Z,90.84
2022-11-07T06:05:35.595Z,90.94
2022-11-07T06:06:35.593Z,90.73
2022-11-07T06:07:35.587Z,91.46
2022-11-07T06:08:35.574Z,91.46
2022-11-07T06:09:35.537Z,91.05
2022-11-07T06:10:35.582Z,91.36
2022-11-07T06:11:35.526Z,91.56
2022-11-07T06:12:35.501Z,91.15
2022-11-07T06:13:35.488Z,91.15
2022-11-07T06:14:35.468Z,91.56
2022-11-07T06:15:35.469Z,91.42
2022-11-07T06:16:35.441Z,91.31
2022-11-07T06:17:35.440Z,91.21
2022-11-07T06:18:40.318Z,91.31
2022-11-07T06:19:36.414Z,91.31
2022-11-07T06:20:35.406Z,91.21
2022-11-07T06:21:35.400Z,91.42
2022-11-07T06:22:35.369Z,91.72
2022-11-07T06:23:35.360Z,91.72
2022-11-07T06:24:35.338Z,91.83
2022-11-07T06:25:35.388Z,92.03
2022-11-07T06:26:35.336Z,91.72
2022-11-07T06:27:35.290Z,91.58
2022-11-07T06:28:35.298Z,91.58
2022-11-07T06:29:35.266Z,91.47
2022-11-07T06:30:35.279Z,91.58
2022-11-07T06:31:35.330Z,91.27
2022-11-07T06:32:35.229Z,91.47
2022-11-07T06:33:35.221Z,91.27
2022-11-07T06:34:35.198Z,91.27
2022-11-07T06:35:35.228Z,91.17
2022-11-07T06:36:35.180Z,91.06
2022-11-07T06:37:35.168Z,91.06
2022-11-07T06:38:35.169Z,91.02
2022-11-07T06:39:35.170Z,91.13
2022-11-07T06:40:35.182Z,91.44
2022-11-07T06:41:35.111Z,91.02
2022-11-07T06:42:35.107Z,91.02
2022-11-07T06:43:35.094Z,90.88
2022-11-07T06:44:35.077Z,90.47
2022-11-07T06:45:35.076Z,90.47
2022-11-07T06:46:35.055Z,90.36
2022-11-07T06:47:35.058Z,90.26
2022-11-07T06:48:35.024Z,90.47
2022-11-07T06:49:35.017Z,90.26
2022-11-07T06:50:34.994Z,90.01
2022-11-07T06:51:34.988Z,89.70
2022-11-07T06:52:34.965Z,90.01
2022-11-07T06:53:34.992Z,89.91
2022-11-07T06:54:34.964Z,89.81
2022-11-07T06:55:34.938Z,89.60
2022-11-07T06:56:34.915Z,89.66
2022-11-07T06:57:34.904Z,89.15
2022-11-07T06:58:34.907Z,89.46
2022-11-07T06:59:34.876Z,89.46
2022-11-07T07:00:34.925Z,89.25
2022-11-07T07:01:34.980Z,88.95
2022-11-07T07:02:57.296Z,89.25
2022-11-07T07:03:35.835Z,89.15
2022-11-07T07:04:34.802Z,88.59
2022-11-07T07:05:34.818Z,88.59
2022-11-07T07:06:34.775Z,88.70
2022-11-07T07:07:34.772Z,88.39
2022-11-07T07:08:34.753Z,88.29
2022-11-07T07:09:34.811Z,88.49
2022-11-07T07:10:34.742Z,87.88
2022-11-07T07:11:34.712Z,88.04
2022-11-07T07:12:34.703Z,88.04
2022-11-07T07:13:34.694Z,87.84
2022-11-07T07:14:34.693Z,87.94
2022-11-07T07:15:49.379Z,87.63
2022-11-07T07:16:35.645Z,87.28
2022-11-07T07:17:34.679Z,87.38
2022-11-07T07:18:34.612Z,87.28
2022-11-07T07:19:34.614Z,87.28
2022-11-07T07:20:34.659Z,86.87
2022-11-07T07:21:34.583Z,86.83
2022-11-07T07:22:34.625Z,86.73
2022-11-07T07:23:34.563Z,86.93
2022-11-07T07:24:34.562Z,86.73
2022-11-07T07:25:34.543Z,86.83
2022-11-07T07:26:34.511Z,86.73
2022-11-07T07:27:34.516Z,86.58
2022-11-07T07:28:34.487Z,86.28
2022-11-07T07:29:34.482Z,86.18
2022-11-07T07:30:34.471Z,85.77
2022-11-07T07:31:34.453Z,85.46
2022-11-07T07:32:34.441Z,85.63
2022-11-07T07:33:34.427Z,85.01
2022-11-07T07:34:34.403Z,85.01
2022-11-07T07:35:34.419Z,85.22
2022-11-07T07:36:34.390Z,85.52
2022-11-07T07:37:34.385Z,85.52
2022-11-07T07:38:34.348Z,85.52
2022-11-07T07:39:34.343Z,84.87
2022-11-07T07:40:34.443Z,84.87
2022-11-07T07:41:39.081Z,84.87
2022-11-07T07:42:35.320Z,84.66
2022-11-07T07:43:34.297Z,84.56
2022-11-07T07:44:34.291Z,84.56
2022-11-07T07:45:34.282Z,84.56
2022-11-07T07:46:34.251Z,84.66
2022-11-07T07:47:34.231Z,84.46
2022-11-07T07:48:34.218Z,84.42
2022-11-07T07:49:34.231Z,83.81
2022-11-07T07:50:34.198Z,83.81
2022-11-07T07:51:34.188Z,83.46
2022-11-07T07:52:34.168Z,83.05
2022-11-07T07:53:34.161Z,82.81
2022-11-07T07:54:34.138Z,82.70
2022-11-07T07:55:34.130Z,82.46
2022-11-07T07:56:34.132Z,81.65
2022-11-07T07:57:34.106Z,81.10
2022-11-07T07:58:34.096Z,80.79
2022-11-07T07:59:34.089Z,80.58
2022-11-07T08:00:34.115Z,80.58
2022-11-07T08:01:34.303Z,80.79
2022-11-07T08:02:34.085Z,80.79
2022-11-07T08:03:57.724Z,80.89
2022-11-07T08:04:35.037Z,80.96
2022-11-07T08:05:34.028Z,80.51
2022-11-07T08:06:34.008Z,79.66
2022-11-07T08:07:33.985Z,78.56
2022-11-07T08:08:37.932Z,76.86
2022-11-07T08:09:33.949Z,75.60
2022-11-07T08:10:42.718Z,74.52
2022-11-07T08:11:34.939Z,72.92
2022-11-07T08:12:33.908Z,71.36
2022-11-07T08:13:33.887Z,71.13
2022-11-07T08:14:33.891Z,70.39
2022-11-07T08:15:33.866Z,69.74
2022-11-07T08:16:33.851Z,69.31
2022-11-07T08:17:33.838Z,68.36
2022-11-07T08:18:33.816Z,66.58
2022-11-07T08:19:33.829Z,66.24
2022-11-07T08:20:33.808Z,64.90
2022-11-07T08:21:33.793Z,64.56
2022-11-07T08:22:33.774Z,64.36
2022-11-07T08:23:33.773Z,63.82
2022-11-07T08:24:33.778Z,64.23
2022-11-07T08:25:33.726Z,64.10
2022-11-07T08:26:33.709Z,64.90
2022-11-07T08:27:33.719Z,63.39
2022-11-07T08:28:33.678Z,64.03
2022-11-07T08:29:33.714Z,64.03
2022-11-07T08:30:33.695Z,64.73
2022-11-07T08:31:33.667Z,63.73
2022-11-07T08:32:33.640Z,63.76
2022-11-07T08:33:33.682Z,63.76
2022-11-07T08:34:33.607Z,62.98
2022-11-07T08:35:36.937Z,64.09
2022-11-07T08:36:34.585Z,64.39
2022-11-07T08:37:33.567Z,63.78
2022-11-07T08:38:33.592Z,64.32
2022-11-07T08:39:33.560Z,64.76
2022-11-07T08:40:33.540Z,64.79
2022-11-07T08:41:33.517Z,65.29
2022-11-07T08:42:33.519Z,66.24
2022-11-07T08:43:33.495Z,65.96
2022-11-07T08:44:33.494Z,66.16
2022-11-07T08:45:33.458Z,66.60
2022-11-07T08:46:33.448Z,67.51
2022-11-07T08:47:33.441Z,67.72
2022-11-07T08:48:33.440Z,68.02
2022-11-07T08:49:33.436Z,67.24
2022-11-07T08:50:33.393Z,67.65
2022-11-07T08:51:33.383Z,68.46
2022-11-07T08:52:33.369Z,68.35
2022-11-07T08:53:33.361Z,68.66
2022-11-07T08:54:33.360Z,68.26
2022-11-07T08:55:33.323Z,68.35
2022-11-07T08:56:33.317Z,68.56
2022-11-07T08:57:33.314Z,68.76
2022-11-07T08:58:33.282Z,68.52
2022-11-07T08:59:33.309Z,68.02
2022-11-07T09:00:33.269Z,67.31
2022-11-07T09:01:33.393Z,67.48
2022-11-07T09:03:23.821Z,67.42
2022-11-07T09:03:55.100Z,66.64
2022-11-07T09:04:39.794Z,64.59
2022-11-07T09:05:34.193Z,65.17
2022-11-07T09:06:33.205Z,64.16
2022-11-07T09:07:33.167Z,63.85
2022-11-07T09:08:33.176Z,63.82
2022-11-07T09:09:33.149Z,63.36
2022-11-07T09:10:33.119Z,62.12
2022-11-07T09:11:33.120Z,61.08
2022-11-07T09:12:33.100Z,60.98
2022-11-07T09:13:33.104Z,61.21
2022-11-07T09:14:33.100Z,61.61
2022-11-07T09:15:33.081Z,61.49
2022-11-07T09:16:33.062Z,61.49
2022-11-07T09:17:33.031Z,61.56
2022-11-07T09:18:33.031Z,61.23
2022-11-07T09:19:33.011Z,60.49
2022-11-07T09:20:32.995Z,59.16
2022-11-07T09:21:32.992Z,58.73
2022-11-07T09:22:32.995Z,58.73
2022-11-07T09:23:32.950Z,58.80
2022-11-07T09:24:32.960Z,57.39
2022-11-07T09:25:32.915Z,57.39
2022-11-07T09:26:32.918Z,57.50
2022-11-07T09:27:32.909Z,57.70
2022-11-07T09:28:32.907Z,56.56
2022-11-07T09:29:32.913Z,56.46
2022-11-07T09:30:32.865Z,57.14
2022-11-07T09:31:32.854Z,57.64
2022-11-07T09:32:46.034Z,57.64
2022-11-07T09:33:33.821Z,57.34
2022-11-07T09:34:32.837Z,57.54
2022-11-07T09:35:32.804Z,54.55
2022-11-07T09:36:32.792Z,56.93
2022-11-07T09:37:32.763Z,56.74
2022-11-07T09:38:32.764Z,57.14
2022-11-07T09:39:32.751Z,57.51
2022-11-07T09:40:32.732Z,55.80
2022-11-07T09:41:32.713Z,55.40
2022-11-07T09:42:32.707Z,54.93
2022-11-07T09:43:32.686Z,55.13
2022-11-07T09:44:36.601Z,55.93
2022-11-07T09:45:32.654Z,55.66
2022-11-07T09:46:32.644Z,56.06
2022-11-07T09:47:32.631Z,56.69
2022-11-07T09:48:32.674Z,56.38
2022-11-07T09:49:32.604Z,56.71
2022-11-07T09:50:32.603Z,57.42
2022-11-07T09:51:32.584Z,57.15
2022-11-07T09:52:32.569Z,57.55
2022-11-07T09:53:32.552Z,57.17
2022-11-07T09:54:32.545Z,58.51
2022-11-07T09:55:32.532Z,58.31
2022-11-07T09:56:32.534Z,58.03
2022-11-07T09:57:32.637Z,57.93
2022-11-07T09:58:32.507Z,58.44
2022-11-07T09:59:32.468Z,59.07
2022-11-07T10:00:32.464Z,59.27
2022-11-07T10:01:32.581Z,59.47
2022-11-07T10:02:32.549Z,60.10
2022-11-07T10:03:32.434Z,59.50
2022-11-07T10:04:32.408Z,59.53
2022-11-07T10:05:32.391Z,59.93
2022-11-07T10:06:32.383Z,60.74
2022-11-07T10:07:32.376Z,60.97
2022-11-07T10:08:32.362Z,61.07
2022-11-07T10:09:32.332Z,61.17
2022-11-07T10:10:32.322Z,60.97
2022-11-07T10:11:32.313Z,60.66
2022-11-07T10:12:32.303Z,60.97
2022-11-07T10:13:32.289Z,61.68
2022-11-07T10:14:32.279Z,61.57
2022-11-07T10:15:32.255Z,61.75
2022-11-07T10:16:32.249Z,61.85
2022-11-07T10:17:32.224Z,60.33
2022-11-07T10:18:32.267Z,60.94
2022-11-07T10:19:32.205Z,61.14
2022-11-07T10:20:32.205Z,60.00
2022-11-07T10:21:39.628Z,60.71
2022-11-07T10:22:33.166Z,61.14
2022-11-07T10:23:32.172Z,60.94
2022-11-07T10:24:32.177Z,61.44
2022-11-07T10:25:32.134Z,61.35
2022-11-07T10:26:32.133Z,61.24
2022-11-07T10:27:33.125Z,62.05
2022-11-07T10:28:32.092Z,61.75
2022-11-07T10:29:32.053Z,61.35
2022-11-07T10:30:32.064Z,61.55
2022-11-07T10:31:32.051Z,60.94
2022-11-07T10:32:32.034Z,61.44
2022-11-07T10:33:32.024Z,60.53
2022-11-07T10:34:32.003Z,61.44
2022-11-07T10:35:32.039Z,61.55
2022-11-07T10:36:31.983Z,62.22
2022-11-07T10:37:31.953Z,61.01
2022-11-07T10:38:31.962Z,59.93
2022-11-07T10:39:31.947Z,60.74
2022-11-07T10:40:31.932Z,61.04
2022-11-07T10:41:31.941Z,61.04
2022-11-07T10:42:31.916Z,61.14
2022-11-07T10:43:31.887Z,61.85
2022-11-07T10:44:31.872Z,61.95
2022-11-07T10:45:31.864Z,61.95
2022-11-07T10:46:31.845Z,61.17
2022-11-07T10:47:31.848Z,61.37
2022-11-07T10:48:31.814Z,61.07
2022-11-07T10:49:31.795Z,61.47
2022-11-07T10:50:31.813Z,61.98
2022-11-07T10:51:48.556Z,62.28
2022-11-07T10:52:31.745Z,62.59
2022-11-07T10:53:31.739Z,62.62
2022-11-07T10:54:31.732Z,62.92
2022-11-07T10:55:31.721Z,62.31
2022-11-07T10:56:31.737Z,62.51
2022-11-07T10:57:31.691Z,62.51
2022-11-07T10:58:31.659Z,62.82
2022-11-07T10:59:36.174Z,62.44
2022-11-07T11:00:32.637Z,62.54
2022-11-07T11:01:31.705Z,62.64
2022-11-07T11:02:31.648Z,62.85
2022-11-07T11:03:43.201Z,62.04
2022-11-07T11:04:32.593Z,62.54
2022-11-07T11:05:31.572Z,62.74
2022-11-07T11:06:31.581Z,62.04
2022-11-07T11:07:31.570Z,62.74
2022-11-07T11:08:31.538Z,63.45
2022-11-07T11:09:31.518Z,63.68
2022-11-07T11:10:31.510Z,63.99
2022-11-07T11:11:31.490Z,63.68
2022-11-07T11:12:34.336Z,64.09
2022-11-07T11:13:31.472Z,63.78
2022-11-07T11:14:31.460Z,62.87
2022-11-07T11:15:35.693Z,63.89
2022-11-07T11:16:31.431Z,64.42
2022-11-07T11:17:31.474Z,64.02
2022-11-07T11:18:31.378Z,64.73
2022-11-07T11:19:31.384Z,63.81
2022-11-07T11:20:32.419Z,64.42
2022-11-07T11:21:43.007Z,64.93
2022-11-07T11:22:31.356Z,65.03
2022-11-07T11:23:31.322Z,65.23
2022-11-07T11:24:31.319Z,64.35
2022-11-07T11:25:31.316Z,64.55
2022-11-07T11:26:31.286Z,64.86
2022-11-07T11:27:31.305Z,65.26
2022-11-07T11:28:31.259Z,65.56
2022-11-07T11:29:35.384Z,65.06
2022-11-07T11:30:32.229Z,65.16
2022-11-07T11:31:31.230Z,65.77
2022-11-07T11:32:31.888Z,65.77
2022-11-07T11:33:32.059Z,65.59
2022-11-07T11:34:31.193Z,66.41
2022-11-07T11:35:31.178Z,65.90
2022-11-07T11:36:31.149Z,64.99
2022-11-07T11:37:31.149Z,65.29
2022-11-07T11:38:31.128Z,65.09
2022-11-07T11:39:31.111Z,65.50
2022-11-07T11:40:31.101Z,65.59
2022-11-07T11:41:31.088Z,66.03
2022-11-07T11:42:31.081Z,66.41
2022-11-07T11:43:31.049Z,66.54
2022-11-07T11:44:31.058Z,66.03
2022-11-07T11:45:31.748Z,66.24
2022-11-07T11:46:31.018Z,66.64
2022-11-07T11:47:34.534Z,66.74
2022-11-07T11:48:30.987Z,67.05
2022-11-07T11:49:30.977Z,67.25
2022-11-07T11:50:30.969Z,67.55
2022-11-07T11:51:30.962Z,67.55
2022-11-07T11:52:30.948Z,67.38
2022-11-07T11:53:30.963Z,67.48
2022-11-07T11:54:30.906Z,66.16
2022-11-07T11:55:30.899Z,66.67
2022-11-07T11:56:30.890Z,67.28
2022-11-07T11:57:30.921Z,67.18
2022-11-07T11:58:30.858Z,66.97
2022-11-07T11:59:31.429Z,67.18
2022-11-07T12:00:30.827Z,67.28
2022-11-07T12:01:30.847Z,67.68
2022-11-07T12:02:30.889Z,67.79
2022-11-07T12:03:30.806Z,67.72
2022-11-07T12:04:30.788Z,67.61
2022-11-07T12:05:30.787Z,67.72
2022-11-07T12:06:31.477Z,67.92
2022-11-07T12:07:30.764Z,68.52
2022-11-07T12:08:30.724Z,68.12
2022-11-07T12:09:30.728Z,68.02
2022-11-07T12:10:30.707Z,68.52
2022-11-07T12:11:30.709Z,68.63
2022-11-07T12:12:30.687Z,68.56
2022-11-07T12:13:30.668Z,68.35
2022-11-07T12:14:30.655Z,68.46
2022-11-07T12:15:30.677Z,67.85
2022-11-07T12:16:31.345Z,68.15
2022-11-07T12:17:30.635Z,68.35
2022-11-07T12:18:30.619Z,69.07
2022-11-07T12:19:30.578Z,69.17
2022-11-07T12:20:30.565Z,69.37
2022-11-07T12:21:30.556Z,69.27
2022-11-07T12:22:30.576Z,68.96
2022-11-07T12:23:30.683Z,69.27
2022-11-07T12:24:30.507Z,69.51
2022-11-07T12:25:30.506Z,69.60
2022-11-07T12:26:30.489Z,69.91
2022-11-07T12:27:30.474Z,69.40
2022-11-07T12:28:30.469Z,69.51
2022-11-07T12:29:30.498Z,69.51
2022-11-07T12:30:30.438Z,70.11
2022-11-07T12:31:30.436Z,70.32
2022-11-07T12:32:30.397Z,69.40
2022-11-07T12:33:30.398Z,70.11
2022-11-07T12:34:30.385Z,70.52
2022-11-07T12:35:30.378Z,70.32
2022-11-07T12:36:30.358Z,70.62
2022-11-07T12:37:31.051Z,70.62
2022-11-07T12:38:30.356Z,70.62
2022-11-07T12:39:30.307Z,70.83
2022-11-07T12:40:30.296Z,70.52
2022-11-07T12:41:30.327Z,70.52
2022-11-07T12:42:30.285Z,70.32
2022-11-07T12:43:30.283Z,70.62
2022-11-07T12:44:30.257Z,69.91
2022-11-07T12:45:30.236Z,70.11
2022-11-07T12:46:30.224Z,70.32
2022-11-07T12:47:30.218Z,70.18
2022-11-07T12:48:30.213Z,70.39
2022-11-07T12:49:30.230Z,69.78
2022-11-07T12:50:30.168Z,70.08
2022-11-07T12:51:30.146Z,69.98
2022-11-07T12:52:30.148Z,69.98